sensor_id;sensor_type;location;lat;lon;timestamp;P1;durP1;ratioP1;P2;durP2;ratioP2
60243;SDS011;46106;51.468;5.814;2023-07-29T00:01:40;9.85;;;5.20;;
60243;SDS011;46106;51.468;5.814;2023-07-29T00:04:26;20.60;;;5.53;;
60243;SDS011;46106;51.468;5.814;2023-07-29T00:07:12;7.65;;;5.15;;
60243;SDS011;46106;51.468;5.814;2023-07-29T00:09:58;11.40;;;5.63;;
60243;SDS011;46106;51.468;5.814;2023-07-29T00:12:44;8.05;;;5.05;;
60243;SDS011;46106;51.468;5.814;2023-07-29T00:15:30;8.65;;;5.93;;
60243;SDS011;46106;51.468;5.814;2023-07-29T00:18:16;10.32;;;5.30;;
60243;SDS011;46106;51.468;5.814;2023-07-29T00:21:01;11.68;;;5.88;;
60243;SDS011;46106;51.468;5.814;2023-07-29T00:23:47;13.10;;;5.75;;
60243;SDS011;46106;51.468;5.814;2023-07-29T00:26:33;12.90;;;5.05;;
60243;SDS011;46106;51.468;5.814;2023-07-29T00:29:19;11.05;;;5.88;;
60243;SDS011;46106;51.468;5.814;2023-07-29T00:32:05;14.48;;;5.97;;
60243;SDS011;46106;51.468;5.814;2023-07-29T00:34:51;9.88;;;5.80;;
60243;SDS011;46106;51.468;5.814;2023-07-29T00:37:37;9.73;;;6.15;;
60243;SDS011;46106;51.468;5.814;2023-07-29T00:40:23;14.65;;;6.55;;
60243;SDS011;46106;51.468;5.814;2023-07-29T00:43:09;12.82;;;6.35;;
60243;SDS011;46106;51.468;5.814;2023-07-29T00:45:55;10.88;;;6.03;;
60243;SDS011;46106;51.468;5.814;2023-07-29T00:48:42;8.57;;;5.80;;
60243;SDS011;46106;51.468;5.814;2023-07-29T00:51:28;8.90;;;6.57;;
60243;SDS011;46106;51.468;5.814;2023-07-29T00:54:14;9.68;;;6.85;;
60243;SDS011;46106;51.468;5.814;2023-07-29T00:56:59;12.25;;;6.15;;
60243;SDS011;46106;51.468;5.814;2023-07-29T00:59:45;11.77;;;6.60;;
60243;SDS011;46106;51.468;5.814;2023-07-29T01:02:31;11.52;;;7.35;;
60243;SDS011;46106;51.468;5.814;2023-07-29T01:05:18;14.38;;;6.97;;
60243;SDS011;46106;51.468;5.814;2023-07-29T01:08:21;14.90;;;7.57;;
60243;SDS011;46106;51.468;5.814;2023-07-29T01:14:26;14.02;;;7.28;;
60243;SDS011;46106;51.468;5.814;2023-07-29T01:17:25;17.50;;;7.50;;
60243;SDS011;46106;51.468;5.814;2023-07-29T01:20:18;14.15;;;7.93;;
60243;SDS011;46106;51.468;5.814;2023-07-29T01:23:05;14.35;;;7.63;;
60243;SDS011;46106;51.468;5.814;2023-07-29T01:25:51;13.60;;;7.50;;
60243;SDS011;46106;51.468;5.814;2023-07-29T01:28:37;14.55;;;8.55;;
60243;SDS011;46106;51.468;5.814;2023-07-29T01:31:25;16.15;;;8.45;;
60243;SDS011;46106;51.468;5.814;2023-07-29T01:34:51;15.55;;;8.65;;
60243;SDS011;46106;51.468;5.814;2023-07-29T01:37:39;13.15;;;8.90;;
60243;SDS011;46106;51.468;5.814;2023-07-29T01:40:27;22.58;;;10.02;;
60243;SDS011;46106;51.468;5.814;2023-07-29T01:43:13;14.27;;;8.80;;
60243;SDS011;46106;51.468;5.814;2023-07-29T01:46:02;17.52;;;9.73;;
60243;SDS011;46106;51.468;5.814;2023-07-29T01:48:48;24.42;;;9.43;;
60243;SDS011;46106;51.468;5.814;2023-07-29T01:51:34;15.55;;;8.98;;
60243;SDS011;46106;51.468;5.814;2023-07-29T01:54:20;14.27;;;9.63;;
60243;SDS011;46106;51.468;5.814;2023-07-29T01:57:05;12.18;;;8.13;;
60243;SDS011;46106;51.468;5.814;2023-07-29T01:59:51;16.85;;;9.13;;
60243;SDS011;46106;51.468;5.814;2023-07-29T02:02:37;13.18;;;8.95;;
60243;SDS011;46106;51.468;5.814;2023-07-29T02:05:22;17.23;;;8.90;;
60243;SDS011;46106;51.468;5.814;2023-07-29T02:08:08;13.75;;;8.18;;
60243;SDS011;46106;51.468;5.814;2023-07-29T02:10:54;20.30;;;8.75;;
60243;SDS011;46106;51.468;5.814;2023-07-29T02:13:40;12.50;;;8.07;;
60243;SDS011;46106;51.468;5.814;2023-07-29T02:16:26;12.60;;;7.65;;
60243;SDS011;46106;51.468;5.814;2023-07-29T02:19:11;15.65;;;7.57;;
60243;SDS011;46106;51.468;5.814;2023-07-29T02:21:57;13.82;;;7.47;;
60243;SDS011;46106;51.468;5.814;2023-07-29T02:24:43;13.15;;;7.95;;
60243;SDS011;46106;51.468;5.814;2023-07-29T02:27:30;18.63;;;8.35;;
60243;SDS011;46106;51.468;5.814;2023-07-29T02:30:16;13.38;;;7.90;;
60243;SDS011;46106;51.468;5.814;2023-07-29T02:33:01;15.38;;;7.15;;
60243;SDS011;46106;51.468;5.814;2023-07-29T02:35:47;12.30;;;6.13;;
60243;SDS011;46106;51.468;5.814;2023-07-29T02:38:33;17.27;;;6.07;;
60243;SDS011;46106;51.468;5.814;2023-07-29T02:41:18;13.40;;;6.78;;
60243;SDS011;46106;51.468;5.814;2023-07-29T02:44:04;15.13;;;6.68;;
60243;SDS011;46106;51.468;5.814;2023-07-29T02:46:51;13.05;;;5.95;;
60243;SDS011;46106;51.468;5.814;2023-07-29T02:49:37;14.63;;;5.97;;
60243;SDS011;46106;51.468;5.814;2023-07-29T02:52:23;15.77;;;6.15;;
60243;SDS011;46106;51.468;5.814;2023-07-29T02:55:09;10.90;;;5.90;;
60243;SDS011;46106;51.468;5.814;2023-07-29T02:57:54;12.88;;;5.85;;
60243;SDS011;46106;51.468;5.814;2023-07-29T03:00:40;12.02;;;6.03;;
60243;SDS011;46106;51.468;5.814;2023-07-29T03:03:28;17.38;;;6.43;;
60243;SDS011;46106;51.468;5.814;2023-07-29T03:06:14;10.77;;;5.55;;
60243;SDS011;46106;51.468;5.814;2023-07-29T03:09:01;13.73;;;5.63;;
60243;SDS011;46106;51.468;5.814;2023-07-29T03:11:46;13.63;;;6.28;;
60243;SDS011;46106;51.468;5.814;2023-07-29T03:14:32;14.57;;;6.45;;
60243;SDS011;46106;51.468;5.814;2023-07-29T03:17:18;25.70;;;6.32;;
60243;SDS011;46106;51.468;5.814;2023-07-29T03:20:04;18.25;;;7.03;;
60243;SDS011;46106;51.468;5.814;2023-07-29T03:22:50;15.13;;;6.90;;
60243;SDS011;46106;51.468;5.814;2023-07-29T03:25:36;15.93;;;7.43;;
60243;SDS011;46106;51.468;5.814;2023-07-29T03:28:25;13.60;;;7.38;;
60243;SDS011;46106;51.468;5.814;2023-07-29T03:31:12;17.83;;;8.77;;
60243;SDS011;46106;51.468;5.814;2023-07-29T03:33:58;20.45;;;8.25;;
60243;SDS011;46106;51.468;5.814;2023-07-29T03:36:44;16.35;;;8.32;;
60243;SDS011;46106;51.468;5.814;2023-07-29T03:39:31;16.23;;;7.70;;
60243;SDS011;46106;51.468;5.814;2023-07-29T03:42:17;22.45;;;9.63;;
60243;SDS011;46106;51.468;5.814;2023-07-29T03:45:03;21.00;;;9.13;;
60243;SDS011;46106;51.468;5.814;2023-07-29T03:47:49;19.92;;;9.15;;
60243;SDS011;46106;51.468;5.814;2023-07-29T03:50:35;20.60;;;9.45;;
60243;SDS011;46106;51.468;5.814;2023-07-29T03:53:22;18.17;;;8.93;;
60243;SDS011;46106;51.468;5.814;2023-07-29T03:56:07;24.45;;;9.18;;
60243;SDS011;46106;51.468;5.814;2023-07-29T03:58:53;23.73;;;9.30;;
60243;SDS011;46106;51.468;5.814;2023-07-29T04:01:47;22.42;;;8.77;;
60243;SDS011;46106;51.468;5.814;2023-07-29T04:04:32;19.58;;;8.50;;
60243;SDS011;46106;51.468;5.814;2023-07-29T04:07:18;24.80;;;9.40;;
60243;SDS011;46106;51.468;5.814;2023-07-29T04:10:04;23.40;;;9.60;;
60243;SDS011;46106;51.468;5.814;2023-07-29T04:12:50;17.05;;;8.02;;
60243;SDS011;46106;51.468;5.814;2023-07-29T04:15:36;22.83;;;8.48;;
60243;SDS011;46106;51.468;5.814;2023-07-29T04:18:22;19.02;;;8.75;;
60243;SDS011;46106;51.468;5.814;2023-07-29T04:21:08;18.38;;;7.57;;
60243;SDS011;46106;51.468;5.814;2023-07-29T04:23:54;17.48;;;7.55;;
60243;SDS011;46106;51.468;5.814;2023-07-29T04:26:40;17.75;;;8.30;;
60243;SDS011;46106;51.468;5.814;2023-07-29T04:29:26;18.73;;;7.88;;
60243;SDS011;46106;51.468;5.814;2023-07-29T04:32:11;18.95;;;7.55;;
60243;SDS011;46106;51.468;5.814;2023-07-29T04:34:57;19.20;;;7.28;;
60243;SDS011;46106;51.468;5.814;2023-07-29T04:37:43;20.70;;;8.35;;
60243;SDS011;46106;51.468;5.814;2023-07-29T04:40:29;17.55;;;7.57;;
60243;SDS011;46106;51.468;5.814;2023-07-29T04:43:18;18.55;;;7.85;;
60243;SDS011;46106;51.468;5.814;2023-07-29T04:46:07;23.60;;;8.20;;
60243;SDS011;46106;51.468;5.814;2023-07-29T04:48:53;19.92;;;9.05;;
60243;SDS011;46106;51.468;5.814;2023-07-29T04:51:39;18.63;;;8.82;;
60243;SDS011;46106;51.468;5.814;2023-07-29T04:54:25;17.33;;;8.65;;
60243;SDS011;46106;51.468;5.814;2023-07-29T04:57:11;17.25;;;8.10;;
60243;SDS011;46106;51.468;5.814;2023-07-29T04:59:56;19.55;;;7.10;;
60243;SDS011;46106;51.468;5.814;2023-07-29T05:02:42;20.85;;;8.25;;
60243;SDS011;46106;51.468;5.814;2023-07-29T05:05:28;18.77;;;6.68;;
60243;SDS011;46106;51.468;5.814;2023-07-29T05:08:14;20.83;;;6.55;;
60243;SDS011;46106;51.468;5.814;2023-07-29T05:10:59;14.05;;;6.05;;
60243;SDS011;46106;51.468;5.814;2023-07-29T05:13:45;15.20;;;6.22;;
60243;SDS011;46106;51.468;5.814;2023-07-29T05:16:31;12.00;;;5.88;;
60243;SDS011;46106;51.468;5.814;2023-07-29T05:19:17;17.00;;;6.07;;
60243;SDS011;46106;51.468;5.814;2023-07-29T05:22:03;13.18;;;5.80;;
60243;SDS011;46106;51.468;5.814;2023-07-29T05:24:49;12.55;;;5.43;;
60243;SDS011;46106;51.468;5.814;2023-07-29T05:27:35;12.13;;;5.35;;
60243;SDS011;46106;51.468;5.814;2023-07-29T05:30:20;18.20;;;5.47;;
60243;SDS011;46106;51.468;5.814;2023-07-29T05:33:06;15.85;;;5.38;;
60243;SDS011;46106;51.468;5.814;2023-07-29T05:35:55;9.82;;;5.00;;
60243;SDS011;46106;51.468;5.814;2023-07-29T05:38:41;13.90;;;5.13;;
60243;SDS011;46106;51.468;5.814;2023-07-29T05:41:26;11.02;;;5.15;;
60243;SDS011;46106;51.468;5.814;2023-07-29T05:44:14;8.13;;;4.05;;
60243;SDS011;46106;51.468;5.814;2023-07-29T05:47:00;7.35;;;4.22;;
60243;SDS011;46106;51.468;5.814;2023-07-29T05:49:45;12.27;;;4.47;;
60243;SDS011;46106;51.468;5.814;2023-07-29T05:52:31;10.75;;;3.90;;
60243;SDS011;46106;51.468;5.814;2023-07-29T05:55:17;10.18;;;4.07;;
60243;SDS011;46106;51.468;5.814;2023-07-29T05:58:03;8.82;;;4.85;;
60243;SDS011;46106;51.468;5.814;2023-07-29T06:00:48;8.05;;;3.58;;
60243;SDS011;46106;51.468;5.814;2023-07-29T06:03:34;24.05;;;3.80;;
60243;SDS011;46106;51.468;5.814;2023-07-29T06:06:20;8.45;;;3.75;;
60243;SDS011;46106;51.468;5.814;2023-07-29T06:09:08;8.10;;;3.13;;
60243;SDS011;46106;51.468;5.814;2023-07-29T06:11:54;5.72;;;3.28;;
60243;SDS011;46106;51.468;5.814;2023-07-29T06:14:40;6.50;;;3.13;;
60243;SDS011;46106;51.468;5.814;2023-07-29T06:17:26;7.50;;;3.00;;
60243;SDS011;46106;51.468;5.814;2023-07-29T06:20:11;13.35;;;3.35;;
60243;SDS011;46106;51.468;5.814;2023-07-29T06:22:57;7.97;;;3.25;;
60243;SDS011;46106;51.468;5.814;2023-07-29T06:25:43;7.20;;;3.10;;
60243;SDS011;46106;51.468;5.814;2023-07-29T06:28:29;6.47;;;3.22;;
60243;SDS011;46106;51.468;5.814;2023-07-29T06:31:14;9.13;;;3.30;;
60243;SDS011;46106;51.468;5.814;2023-07-29T06:34:00;8.75;;;3.30;;
60243;SDS011;46106;51.468;5.814;2023-07-29T06:36:46;10.82;;;3.50;;
60243;SDS011;46106;51.468;5.814;2023-07-29T06:39:32;6.95;;;3.38;;
60243;SDS011;46106;51.468;5.814;2023-07-29T06:42:17;6.68;;;2.95;;
60243;SDS011;46106;51.468;5.814;2023-07-29T06:45:04;8.45;;;3.22;;
60243;SDS011;46106;51.468;5.814;2023-07-29T06:47:50;6.03;;;2.80;;
60243;SDS011;46106;51.468;5.814;2023-07-29T06:50:36;9.38;;;2.67;;
60243;SDS011;46106;51.468;5.814;2023-07-29T06:53:22;6.32;;;2.75;;
60243;SDS011;46106;51.468;5.814;2023-07-29T06:56:08;10.88;;;2.80;;
60243;SDS011;46106;51.468;5.814;2023-07-29T06:58:54;6.03;;;2.22;;
60243;SDS011;46106;51.468;5.814;2023-07-29T07:01:39;4.63;;;2.65;;
60243;SDS011;46106;51.468;5.814;2023-07-29T07:04:25;5.30;;;2.60;;
60243;SDS011;46106;51.468;5.814;2023-07-29T07:07:11;5.18;;;2.38;;
60243;SDS011;46106;51.468;5.814;2023-07-29T07:09:57;4.65;;;2.38;;
60243;SDS011;46106;51.468;5.814;2023-07-29T07:12:42;4.55;;;2.30;;
60243;SDS011;46106;51.468;5.814;2023-07-29T07:15:28;5.82;;;2.25;;
60243;SDS011;46106;51.468;5.814;2023-07-29T07:18:14;7.32;;;1.98;;
60243;SDS011;46106;51.468;5.814;2023-07-29T07:20:59;5.72;;;1.80;;
60243;SDS011;46106;51.468;5.814;2023-07-29T07:23:45;4.65;;;1.50;;
60243;SDS011;46106;51.468;5.814;2023-07-29T07:26:31;5.80;;;1.77;;
60243;SDS011;46106;51.468;5.814;2023-07-29T07:29:17;4.70;;;1.83;;
60243;SDS011;46106;51.468;5.814;2023-07-29T07:32:02;4.05;;;1.77;;
60243;SDS011;46106;51.468;5.814;2023-07-29T07:34:48;11.70;;;1.85;;
60243;SDS011;46106;51.468;5.814;2023-07-29T07:37:34;5.20;;;1.60;;
60243;SDS011;46106;51.468;5.814;2023-07-29T07:40:20;4.93;;;1.65;;
60243;SDS011;46106;51.468;5.814;2023-07-29T07:43:06;5.53;;;1.90;;
60243;SDS011;46106;51.468;5.814;2023-07-29T07:45:57;5.30;;;1.88;;
60243;SDS011;46106;51.468;5.814;2023-07-29T07:48:43;9.57;;;2.07;;
60243;SDS011;46106;51.468;5.814;2023-07-29T07:51:29;4.43;;;2.30;;
60243;SDS011;46106;51.468;5.814;2023-07-29T07:54:15;5.38;;;2.00;;
60243;SDS011;46106;51.468;5.814;2023-07-29T07:57:01;4.25;;;1.77;;
60243;SDS011;46106;51.468;5.814;2023-07-29T07:59:47;9.00;;;3.22;;
60243;SDS011;46106;51.468;5.814;2023-07-29T08:02:33;6.25;;;2.88;;
60243;SDS011;46106;51.468;5.814;2023-07-29T08:05:18;4.78;;;2.05;;
60243;SDS011;46106;51.468;5.814;2023-07-29T08:08:04;5.70;;;1.95;;
60243;SDS011;46106;51.468;5.814;2023-07-29T08:10:50;7.22;;;2.08;;
60243;SDS011;46106;51.468;5.814;2023-07-29T08:13:37;3.67;;;2.15;;
60243;SDS011;46106;51.468;5.814;2023-07-29T08:16:23;4.28;;;1.77;;
60243;SDS011;46106;51.468;5.814;2023-07-29T08:19:09;5.47;;;1.77;;
60243;SDS011;46106;51.468;5.814;2023-07-29T08:21:55;3.47;;;1.73;;
60243;SDS011;46106;51.468;5.814;2023-07-29T08:24:41;3.38;;;1.63;;
60243;SDS011;46106;51.468;5.814;2023-07-29T08:27:26;3.05;;;1.30;;
60243;SDS011;46106;51.468;5.814;2023-07-29T08:30:12;2.80;;;1.60;;
60243;SDS011;46106;51.468;5.814;2023-07-29T08:32:58;3.97;;;1.80;;
60243;SDS011;46106;51.468;5.814;2023-07-29T08:35:44;2.67;;;1.70;;
60243;SDS011;46106;51.468;5.814;2023-07-29T08:38:29;4.28;;;1.60;;
60243;SDS011;46106;51.468;5.814;2023-07-29T08:44:23;2.50;;;1.38;;
60243;SDS011;46106;51.468;5.814;2023-07-29T08:47:11;7.47;;;1.83;;
60243;SDS011;46106;51.468;5.814;2023-07-29T08:50:01;3.70;;;1.90;;
60243;SDS011;46106;51.468;5.814;2023-07-29T08:52:48;2.90;;;1.55;;
60243;SDS011;46106;51.468;5.814;2023-07-29T08:55:35;5.50;;;1.60;;
60243;SDS011;46106;51.468;5.814;2023-07-29T08:58:21;4.20;;;1.58;;
60243;SDS011;46106;51.468;5.814;2023-07-29T09:01:07;2.00;;;1.55;;
60243;SDS011;46106;51.468;5.814;2023-07-29T09:03:53;2.60;;;1.50;;
60243;SDS011;46106;51.468;5.814;2023-07-29T09:06:39;3.80;;;1.40;;
60243;SDS011;46106;51.468;5.814;2023-07-29T09:09:28;3.80;;;1.50;;
60243;SDS011;46106;51.468;5.814;2023-07-29T09:12:14;3.13;;;1.25;;
60243;SDS011;46106;51.468;5.814;2023-07-29T09:14:59;4.68;;;1.42;;
60243;SDS011;46106;51.468;5.814;2023-07-29T09:17:45;3.50;;;1.52;;
60243;SDS011;46106;51.468;5.814;2023-07-29T09:20:31;3.90;;;1.40;;
60243;SDS011;46106;51.468;5.814;2023-07-29T09:23:19;3.58;;;1.67;;
60243;SDS011;46106;51.468;5.814;2023-07-29T09:26:05;3.72;;;1.40;;
60243;SDS011;46106;51.468;5.814;2023-07-29T09:28:52;4.75;;;1.60;;
60243;SDS011;46106;51.468;5.814;2023-07-29T09:31:39;3.80;;;1.50;;
60243;SDS011;46106;51.468;5.814;2023-07-29T09:34:25;2.45;;;1.30;;
60243;SDS011;46106;51.468;5.814;2023-07-29T09:37:15;2.72;;;1.20;;
60243;SDS011;46106;51.468;5.814;2023-07-29T09:40:06;2.53;;;1.33;;
60243;SDS011;46106;51.468;5.814;2023-07-29T09:42:58;4.78;;;1.67;;
60243;SDS011;46106;51.468;5.814;2023-07-29T09:45:44;3.90;;;1.40;;
60243;SDS011;46106;51.468;5.814;2023-07-29T09:48:35;4.32;;;1.13;;
60243;SDS011;46106;51.468;5.814;2023-07-29T09:51:21;2.40;;;1.20;;
60243;SDS011;46106;51.468;5.814;2023-07-29T09:54:07;11.18;;;1.80;;
60243;SDS011;46106;51.468;5.814;2023-07-29T09:56:55;2.25;;;1.30;;
60243;SDS011;46106;51.468;5.814;2023-07-29T09:59:42;3.17;;;1.50;;
60243;SDS011;46106;51.468;5.814;2023-07-29T10:02:28;29.95;;;1.98;;
60243;SDS011;46106;51.468;5.814;2023-07-29T10:05:15;5.95;;;1.20;;
60243;SDS011;46106;51.468;5.814;2023-07-29T10:08:01;2.05;;;1.10;;
60243;SDS011;46106;51.468;5.814;2023-07-29T10:10:49;9.90;;;2.08;;
60243;SDS011;46106;51.468;5.814;2023-07-29T10:13:36;4.65;;;1.58;;
60243;SDS011;46106;51.468;5.814;2023-07-29T10:16:23;3.88;;;1.23;;
60243;SDS011;46106;51.468;5.814;2023-07-29T10:19:10;2.80;;;1.73;;
60243;SDS011;46106;51.468;5.814;2023-07-29T10:22:01;3.83;;;1.40;;
60243;SDS011;46106;51.468;5.814;2023-07-29T10:24:48;3.40;;;1.52;;
60243;SDS011;46106;51.468;5.814;2023-07-29T10:27:53;4.32;;;1.50;;
60243;SDS011;46106;51.468;5.814;2023-07-29T10:30:45;5.50;;;1.48;;
60243;SDS011;46106;51.468;5.814;2023-07-29T10:33:32;5.05;;;1.50;;
60243;SDS011;46106;51.468;5.814;2023-07-29T10:36:19;3.47;;;1.48;;
60243;SDS011;46106;51.468;5.814;2023-07-29T10:39:06;5.53;;;1.40;;
60243;SDS011;46106;51.468;5.814;2023-07-29T10:41:59;7.22;;;1.60;;
60243;SDS011;46106;51.468;5.814;2023-07-29T10:44:50;4.53;;;1.60;;
60243;SDS011;46106;51.468;5.814;2023-07-29T10:47:39;2.65;;;1.42;;
60243;SDS011;46106;51.468;5.814;2023-07-29T10:50:25;2.78;;;1.38;;
60243;SDS011;46106;51.468;5.814;2023-07-29T10:53:13;4.68;;;1.75;;
60243;SDS011;46106;51.468;5.814;2023-07-29T10:56:01;6.25;;;1.70;;
60243;SDS011;46106;51.468;5.814;2023-07-29T10:58:47;2.53;;;1.70;;
60243;SDS011;46106;51.468;5.814;2023-07-29T11:01:33;3.10;;;1.58;;
60243;SDS011;46106;51.468;5.814;2023-07-29T11:10:00;2.17;;;1.67;;
60243;SDS011;46106;51.468;5.814;2023-07-29T11:12:48;5.43;;;1.50;;
60243;SDS011;46106;51.468;5.814;2023-07-29T11:15:39;3.00;;;1.30;;
60243;SDS011;46106;51.468;5.814;2023-07-29T11:18:26;2.42;;;1.52;;
60243;SDS011;46106;51.468;5.814;2023-07-29T11:21:32;3.53;;;1.50;;
60243;SDS011;46106;51.468;5.814;2023-07-29T11:24:18;4.40;;;1.48;;
60243;SDS011;46106;51.468;5.814;2023-07-29T11:27:04;4.32;;;1.58;;
60243;SDS011;46106;51.468;5.814;2023-07-29T11:29:50;3.78;;;1.48;;
60243;SDS011;46106;51.468;5.814;2023-07-29T11:32:45;5.13;;;1.67;;
60243;SDS011;46106;51.468;5.814;2023-07-29T11:35:32;2.42;;;1.50;;
60243;SDS011;46106;51.468;5.814;2023-07-29T11:38:18;4.60;;;1.83;;
60243;SDS011;46106;51.468;5.814;2023-07-29T11:41:05;7.25;;;1.50;;
60243;SDS011;46106;51.468;5.814;2023-07-29T11:43:52;3.53;;;1.60;;
60243;SDS011;46106;51.468;5.814;2023-07-29T11:46:38;5.22;;;1.63;;
60243;SDS011;46106;51.468;5.814;2023-07-29T11:49:24;4.05;;;1.58;;
60243;SDS011;46106;51.468;5.814;2023-07-29T11:52:10;3.45;;;1.60;;
60243;SDS011;46106;51.468;5.814;2023-07-29T11:54:57;3.38;;;1.65;;
60243;SDS011;46106;51.468;5.814;2023-07-29T11:57:43;32.97;;;4.82;;
60243;SDS011;46106;51.468;5.814;2023-07-29T12:00:29;14.43;;;4.20;;
60243;SDS011;46106;51.468;5.814;2023-07-29T12:03:16;7.00;;;3.10;;
60243;SDS011;46106;51.468;5.814;2023-07-29T12:06:03;8.43;;;3.08;;
60243;SDS011;46106;51.468;5.814;2023-07-29T12:08:48;9.00;;;3.42;;
60243;SDS011;46106;51.468;5.814;2023-07-29T12:11:34;7.03;;;2.63;;
60243;SDS011;46106;51.468;5.814;2023-07-29T12:14:20;6.70;;;2.55;;
60243;SDS011;46106;51.468;5.814;2023-07-29T12:17:06;5.03;;;2.58;;
60243;SDS011;46106;51.468;5.814;2023-07-29T12:19:53;5.38;;;2.67;;
60243;SDS011;46106;51.468;5.814;2023-07-29T12:22:40;4.00;;;2.65;;
60243;SDS011;46106;51.468;5.814;2023-07-29T12:25:26;4.00;;;2.53;;
60243;SDS011;46106;51.468;5.814;2023-07-29T12:28:12;4.68;;;2.65;;
60243;SDS011;46106;51.468;5.814;2023-07-29T12:33:29;3.28;;;2.47;;
60243;SDS011;46106;51.468;5.814;2023-07-29T12:36:16;4.15;;;2.65;;
60243;SDS011;46106;51.468;5.814;2023-07-29T12:39:02;8.88;;;3.03;;
60243;SDS011;46106;51.468;5.814;2023-07-29T12:41:48;8.85;;;3.50;;
60243;SDS011;46106;51.468;5.814;2023-07-29T12:44:36;6.13;;;4.18;;
60243;SDS011;46106;51.468;5.814;2023-07-29T12:47:22;5.75;;;3.50;;
60243;SDS011;46106;51.468;5.814;2023-07-29T12:50:08;12.00;;;4.10;;
60243;SDS011;46106;51.468;5.814;2023-07-29T12:52:54;12.32;;;3.53;;
60243;SDS011;46106;51.468;5.814;2023-07-29T12:55:40;6.78;;;2.97;;
60243;SDS011;46106;51.468;5.814;2023-07-29T12:58:26;5.10;;;2.63;;
60243;SDS011;46106;51.468;5.814;2023-07-29T13:01:11;5.15;;;2.65;;
60243;SDS011;46106;51.468;5.814;2023-07-29T13:04:02;16.05;;;3.30;;
60243;SDS011;46106;51.468;5.814;2023-07-29T13:06:48;7.32;;;2.75;;
60243;SDS011;46106;51.468;5.814;2023-07-29T13:09:34;5.55;;;2.53;;
60243;SDS011;46106;51.468;5.814;2023-07-29T13:12:20;4.65;;;2.50;;
60243;SDS011;46106;51.468;5.814;2023-07-29T13:15:06;8.80;;;3.35;;
60243;SDS011;46106;51.468;5.814;2023-07-29T13:17:52;4.88;;;3.03;;
60243;SDS011;46106;51.468;5.814;2023-07-29T13:20:38;8.43;;;3.75;;
60243;SDS011;46106;51.468;5.814;2023-07-29T13:23:24;6.28;;;3.05;;
60243;SDS011;46106;51.468;5.814;2023-07-29T13:26:09;10.27;;;3.30;;
60243;SDS011;46106;51.468;5.814;2023-07-29T13:28:56;7.25;;;3.22;;
60243;SDS011;46106;51.468;5.814;2023-07-29T13:31:42;5.43;;;3.72;;
60243;SDS011;46106;51.468;5.814;2023-07-29T13:34:28;11.23;;;3.03;;
60243;SDS011;46106;51.468;5.814;2023-07-29T13:37:14;6.68;;;3.20;;
60243;SDS011;46106;51.468;5.814;2023-07-29T13:40:00;5.78;;;3.15;;
60243;SDS011;46106;51.468;5.814;2023-07-29T13:45:23;3.88;;;2.70;;
60243;SDS011;46106;51.468;5.814;2023-07-29T13:48:09;4.22;;;2.58;;
60243;SDS011;46106;51.468;5.814;2023-07-29T13:50:54;4.53;;;3.10;;
60243;SDS011;46106;51.468;5.814;2023-07-29T13:53:40;4.15;;;2.72;;
60243;SDS011;46106;51.468;5.814;2023-07-29T13:56:26;4.30;;;2.90;;
60243;SDS011;46106;51.468;5.814;2023-07-29T13:59:12;6.15;;;2.95;;
60243;SDS011;46106;51.468;5.814;2023-07-29T14:01:58;5.05;;;2.58;;
60243;SDS011;46106;51.468;5.814;2023-07-29T14:04:43;3.30;;;2.20;;
60243;SDS011;46106;51.468;5.814;2023-07-29T14:07:29;5.18;;;2.63;;
60243;SDS011;46106;51.468;5.814;2023-07-29T14:10:15;3.35;;;2.70;;
60243;SDS011;46106;51.468;5.814;2023-07-29T14:13:01;4.13;;;2.25;;
60243;SDS011;46106;51.468;5.814;2023-07-29T14:15:47;3.28;;;2.25;;
60243;SDS011;46106;51.468;5.814;2023-07-29T14:18:32;3.97;;;2.33;;
60243;SDS011;46106;51.468;5.814;2023-07-29T14:21:18;3.65;;;2.25;;
60243;SDS011;46106;51.468;5.814;2023-07-29T14:24:05;2.60;;;1.88;;
60243;SDS011;46106;51.468;5.814;2023-07-29T14:26:51;5.82;;;2.10;;
60243;SDS011;46106;51.468;5.814;2023-07-29T14:29:36;3.55;;;2.33;;
60243;SDS011;46106;51.468;5.814;2023-07-29T14:32:22;2.25;;;1.77;;
60243;SDS011;46106;51.468;5.814;2023-07-29T14:35:08;2.58;;;1.90;;
60243;SDS011;46106;51.468;5.814;2023-07-29T14:37:55;4.05;;;2.30;;
60243;SDS011;46106;51.468;5.814;2023-07-29T14:40:41;4.78;;;2.17;;
60243;SDS011;46106;51.468;5.814;2023-07-29T14:43:29;5.57;;;1.88;;
60243;SDS011;46106;51.468;5.814;2023-07-29T14:48:51;4.07;;;2.30;;
60243;SDS011;46106;51.468;5.814;2023-07-29T14:51:37;6.97;;;3.30;;
60243;SDS011;46106;51.468;5.814;2023-07-29T14:54:23;2.97;;;2.00;;
60243;SDS011;46106;51.468;5.814;2023-07-29T14:57:09;3.55;;;1.80;;
60243;SDS011;46106;51.468;5.814;2023-07-29T14:59:42;4.07;;;2.35;;
60243;SDS011;46106;51.468;5.814;2023-07-29T15:02:28;3.20;;;1.90;;
60243;SDS011;46106;51.468;5.814;2023-07-29T15:05:15;2.28;;;1.98;;
60243;SDS011;46106;51.468;5.814;2023-07-29T15:08:02;6.90;;;1.80;;
60243;SDS011;46106;51.468;5.814;2023-07-29T15:10:48;3.42;;;1.90;;
60243;SDS011;46106;51.468;5.814;2023-07-29T15:13:33;2.83;;;1.70;;
60243;SDS011;46106;51.468;5.814;2023-07-29T15:16:23;4.85;;;1.67;;
60243;SDS011;46106;51.468;5.814;2023-07-29T15:19:10;2.88;;;1.80;;
60243;SDS011;46106;51.468;5.814;2023-07-29T15:21:55;5.80;;;2.17;;
60243;SDS011;46106;51.468;5.814;2023-07-29T15:24:41;9.32;;;3.45;;
60243;SDS011;46106;51.468;5.814;2023-07-29T15:27:29;5.22;;;3.47;;
60243;SDS011;46106;51.468;5.814;2023-07-29T15:30:15;4.22;;;2.33;;
60243;SDS011;46106;51.468;5.814;2023-07-29T15:33:01;2.10;;;1.90;;
60243;SDS011;46106;51.468;5.814;2023-07-29T15:38:15;4.18;;;1.98;;
60243;SDS011;46106;51.468;5.814;2023-07-29T15:43:38;4.80;;;2.42;;
60243;SDS011;46106;51.468;5.814;2023-07-29T15:46:24;3.70;;;2.42;;
60243;SDS011;46106;51.468;5.814;2023-07-29T15:49:10;7.82;;;2.45;;
60243;SDS011;46106;51.468;5.814;2023-07-29T15:51:56;5.03;;;2.60;;
60243;SDS011;46106;51.468;5.814;2023-07-29T15:54:42;3.33;;;2.30;;
60243;SDS011;46106;51.468;5.814;2023-07-29T15:57:30;2.67;;;2.47;;
60243;SDS011;46106;51.468;5.814;2023-07-29T16:00:16;5.82;;;4.28;;
60243;SDS011;46106;51.468;5.814;2023-07-29T16:03:02;3.78;;;3.08;;
60243;SDS011;46106;51.468;5.814;2023-07-29T16:05:47;6.03;;;3.10;;
60243;SDS011;46106;51.468;5.814;2023-07-29T16:08:33;3.63;;;3.08;;
60243;SDS011;46106;51.468;5.814;2023-07-29T16:11:22;5.78;;;3.90;;
60243;SDS011;46106;51.468;5.814;2023-07-29T16:14:08;5.43;;;2.35;;
60243;SDS011;46106;51.468;5.814;2023-07-29T16:16:54;3.35;;;3.05;;
60243;SDS011;46106;51.468;5.814;2023-07-29T16:19:53;3.67;;;2.80;;
60243;SDS011;46106;51.468;5.814;2023-07-29T16:22:39;6.53;;;3.25;;
60243;SDS011;46106;51.468;5.814;2023-07-29T16:25:25;3.67;;;2.17;;
60243;SDS011;46106;51.468;5.814;2023-07-29T16:28:10;4.22;;;2.28;;
60243;SDS011;46106;51.468;5.814;2023-07-29T16:30:56;3.92;;;2.70;;
60243;SDS011;46106;51.468;5.814;2023-07-29T16:33:42;3.30;;;2.30;;
60243;SDS011;46106;51.468;5.814;2023-07-29T16:36:31;3.03;;;2.78;;
60243;SDS011;46106;51.468;5.814;2023-07-29T16:39:17;4.30;;;2.40;;
60243;SDS011;46106;51.468;5.814;2023-07-29T16:42:02;3.22;;;2.90;;
60243;SDS011;46106;51.468;5.814;2023-07-29T16:44:48;3.55;;;3.00;;
60243;SDS011;46106;51.468;5.814;2023-07-29T16:47:34;9.52;;;5.20;;
60243;SDS011;46106;51.468;5.814;2023-07-29T16:50:20;15.50;;;7.57;;
60243;SDS011;46106;51.468;5.814;2023-07-29T16:53:06;89.43;;;38.75;;
60243;SDS011;46106;51.468;5.814;2023-07-29T16:55:51;77.65;;;38.40;;
60243;SDS011;46106;51.468;5.814;2023-07-29T16:58:37;7.80;;;4.20;;
60243;SDS011;46106;51.468;5.814;2023-07-29T17:01:23;5.00;;;3.33;;
60243;SDS011;46106;51.468;5.814;2023-07-29T17:04:08;4.13;;;2.80;;